Terminal Aerodrome Forecast
Issued by NWS Mt. Holly, NJ

Current Version | Previous Version | Text Only | Print | Product List | Glossary On
Versions: 1 2 3 4 5 6 7 8 9 10 11 12 13 14 15 16 17 18 19 20 21 22 23 24
000
FTUS41 KPHI 292333
TAFPHL
TAF
KPHL 292333Z 3000/3106 20012KT P6SM SCT045
     FM300100 20006KT P6SM SCT250
     FM300800 21008KT P6SM BKN100
      TEMPO 3009/3013 -SHRA OVC050
     FM301800 25008KT P6SM BKN100 PROB30 3019/3023 4SM -TSRA BR
      BKN025CB
     FM302300 28005KT P6SM OVC250=

USA.gov is the U.S. government's official web portal to all federal, state and local government web resources and services.